createdAt,value
2018-12-10T00:00:57.683Z,76.80
2018-12-10T00:03:33.018Z,76.90
2018-12-10T00:06:02.261Z,76.80
2018-12-10T00:08:31.418Z,78.30
2018-12-10T00:11:01.298Z,78.50
2018-12-10T00:13:30.975Z,76.90
2018-12-10T00:16:00.719Z,77.60
2018-12-10T00:18:29.480Z,77.20
2018-12-10T00:20:58.205Z,77.40
2018-12-10T00:23:26.986Z,78.10
2018-12-10T00:25:56.366Z,77.20
2018-12-10T00:28:25.123Z,77.70
2018-12-10T00:30:53.818Z,77.90
2018-12-10T00:33:22.515Z,78.50
2018-12-10T00:35:51.275Z,78.30
2018-12-10T00:38:20.300Z,77.90
2018-12-10T00:40:49.499Z,77.50
2018-12-10T00:43:18.889Z,78.20
2018-12-10T00:45:48.214Z,78.30
2018-12-10T00:48:17.481Z,77.50
2018-12-10T00:50:46.901Z,78.50
2018-12-10T00:53:16.258Z,78.60
2018-12-10T00:55:45.058Z,78.40
2018-12-10T00:58:13.816Z,78.80
2018-12-10T01:00:42.650Z,78.70
2018-12-10T01:03:11.389Z,78.90
2018-12-10T01:05:40.839Z,78.30
2018-12-10T01:08:10.133Z,77.70
2018-12-10T01:10:38.932Z,78.60
2018-12-10T01:13:07.644Z,78.90
2018-12-10T01:15:36.392Z,78.80
2018-12-10T01:18:05.204Z,79.50
2018-12-10T01:20:34.153Z,79.10
2018-12-10T01:23:03.526Z,79.90
2018-12-10T01:28:43.641Z,79.80
2018-12-10T01:31:12.990Z,79.80
2018-12-10T01:33:41.657Z,79.70
2018-12-10T01:36:10.301Z,79.90
2018-12-10T01:38:39.785Z,80.10
2018-12-10T01:41:08.468Z,80.50
2018-12-10T01:43:37.209Z,81.30
2018-12-10T01:46:05.950Z,81.10
2018-12-10T01:48:35.085Z,81.80
2018-12-10T01:51:04.193Z,81.30
2018-12-10T01:53:32.871Z,80.70
2018-12-10T01:56:01.602Z,81.50
2018-12-10T01:58:31.029Z,82.00
2018-12-10T02:00:59.840Z,82.60
2018-12-10T02:03:29.021Z,82.40
2018-12-10T02:05:58.245Z,82.40
2018-12-10T02:08:27.754Z,83.00
2018-12-10T02:10:56.435Z,83.50
2018-12-10T02:13:25.182Z,83.50
2018-12-10T02:15:54.820Z,84.10
2018-12-10T02:18:23.644Z,84.10
2018-12-10T02:20:52.427Z,84.40
2018-12-10T02:23:22.866Z,84.30
2018-12-10T02:25:52.827Z,84.60
2018-12-10T02:28:28.068Z,84.90
2018-12-10T02:30:58.194Z,85.30
2018-12-10T02:33:27.457Z,85.40
2018-12-10T02:35:56.163Z,85.30
2018-12-10T02:38:25.472Z,85.50
2018-12-10T02:40:54.672Z,85.40
2018-12-10T02:43:23.339Z,85.40
2018-12-10T02:45:52.052Z,85.40
2018-12-10T02:48:21.590Z,85.80
2018-12-10T02:50:57.232Z,85.60
2018-12-10T02:53:26.804Z,85.80
2018-12-10T02:55:55.525Z,85.60
2018-12-10T02:58:24.846Z,85.50
2018-12-10T03:00:53.875Z,85.50
2018-12-10T03:03:23.316Z,85.60
2018-12-10T03:05:52.696Z,85.70
2018-12-10T03:08:22.240Z,85.90
2018-12-10T03:10:52.139Z,85.80
2018-12-10T03:13:21.324Z,85.90
2018-12-10T03:15:50.231Z,85.90
2018-12-10T03:18:20.129Z,86.10
2018-12-10T03:20:49.145Z,85.90
2018-12-10T03:23:17.990Z,85.70
2018-12-10T03:25:46.792Z,85.20
2018-12-10T03:28:15.903Z,85.30
2018-12-10T03:30:44.709Z,85.30
2018-12-10T03:33:14.470Z,85.10
2018-12-10T03:35:43.803Z,85.00
2018-12-10T03:38:12.820Z,84.80
2018-12-10T03:40:42.266Z,85.20
2018-12-10T03:43:11.691Z,85.10
2018-12-10T03:45:41.163Z,85.00
2018-12-10T03:48:09.934Z,85.50
2018-12-10T03:50:38.909Z,85.60
2018-12-10T03:53:07.689Z,85.80
2018-12-10T03:55:36.732Z,85.70
2018-12-10T03:58:06.160Z,85.80
2018-12-10T04:00:35.404Z,86.30
2018-12-10T04:03:04.163Z,86.10
2018-12-10T04:05:32.989Z,86.10
2018-12-10T04:08:01.782Z,86.00
2018-12-10T04:10:30.675Z,85.90
2018-12-10T04:12:59.594Z,86.60
2018-12-10T04:15:28.643Z,87.10
2018-12-10T04:17:58.224Z,86.70
2018-12-10T04:20:27.812Z,86.80
2018-12-10T04:22:56.823Z,86.70
2018-12-10T04:25:25.505Z,86.60
2018-12-10T04:27:54.238Z,86.90
2018-12-10T04:30:22.992Z,87.60
2018-12-10T04:32:52.182Z,88.00
2018-12-10T04:35:21.592Z,88.30
2018-12-10T04:37:50.881Z,88.30
2018-12-10T04:40:20.028Z,88.70
2018-12-10T04:42:49.133Z,89.40
2018-12-10T04:45:18.392Z,89.40
2018-12-10T04:47:47.371Z,89.80
2018-12-10T04:50:16.054Z,89.90
2018-12-10T04:52:45.375Z,90.10
2018-12-10T04:55:14.905Z,90.10
2018-12-10T04:57:44.242Z,90.00
2018-12-10T05:00:13.090Z,90.00
2018-12-10T05:02:42.464Z,90.00
2018-12-10T05:05:11.842Z,90.10
2018-12-10T05:07:40.722Z,90.20
2018-12-10T05:10:09.674Z,90.00
2018-12-10T05:12:38.689Z,89.90
2018-12-10T05:15:07.655Z,89.60
2018-12-10T05:17:37.266Z,89.10
2018-12-10T05:20:06.358Z,89.20
2018-12-10T05:22:35.609Z,89.40
2018-12-10T05:25:04.636Z,89.90
2018-12-10T05:27:33.887Z,89.40
2018-12-10T05:30:02.594Z,89.40
2018-12-10T05:32:31.308Z,89.50
2018-12-10T05:35:00.192Z,89.70
2018-12-10T05:37:29.109Z,89.70
2018-12-10T05:39:57.833Z,90.00
2018-12-10T05:42:26.556Z,90.00
2018-12-10T05:44:55.212Z,90.00
2018-12-10T05:47:23.984Z,90.00
2018-12-10T05:49:52.758Z,90.10
2018-12-10T05:52:21.560Z,90.10
2018-12-10T05:54:50.267Z,90.20
2018-12-10T05:57:19.015Z,90.30
2018-12-10T05:59:48.172Z,90.20
2018-12-10T06:02:17.468Z,90.30
2018-12-10T06:04:46.774Z,90.30
2018-12-10T06:07:16.212Z,90.50
2018-12-10T06:09:45.336Z,90.50
2018-12-10T06:12:15.103Z,90.70
2018-12-10T06:14:44.540Z,90.80
2018-12-10T06:17:13.227Z,91.00
2018-12-10T06:19:41.939Z,91.10
2018-12-10T06:22:10.636Z,91.20
2018-12-10T06:24:39.315Z,91.40
2018-12-10T06:27:08.032Z,91.50
2018-12-10T06:29:37.086Z,91.70
2018-12-10T06:32:05.843Z,91.70
2018-12-10T06:34:35.077Z,91.80
2018-12-10T06:37:04.409Z,92.00
2018-12-10T06:39:33.569Z,92.00
2018-12-10T06:42:02.623Z,92.10
2018-12-10T06:44:32.212Z,92.10
2018-12-10T06:47:01.270Z,92.10
2018-12-10T06:49:30.589Z,92.30
2018-12-10T06:51:59.433Z,92.30
2018-12-10T06:54:28.868Z,92.50
2018-12-10T06:56:58.497Z,92.40
2018-12-10T06:59:27.632Z,92.80
2018-12-10T07:01:56.820Z,92.40
2018-12-10T07:04:25.601Z,92.50
2018-12-10T07:06:54.354Z,92.90
2018-12-10T07:09:23.196Z,92.80
2018-12-10T07:11:52.001Z,93.00
2018-12-10T07:14:21.255Z,92.90
2018-12-10T07:16:50.556Z,92.90
2018-12-10T07:19:20.164Z,93.00
2018-12-10T07:21:49.615Z,92.90
2018-12-10T07:24:19.085Z,92.90
2018-12-10T07:26:48.314Z,92.90
2018-12-10T07:29:18.095Z,93.00
2018-12-10T07:31:47.186Z,93.20
2018-12-10T07:34:16.479Z,92.90
2018-12-10T07:36:45.993Z,92.90
2018-12-10T07:39:15.174Z,92.90
2018-12-10T07:41:44.729Z,92.90
2018-12-10T07:44:14.194Z,92.90
2018-12-10T07:46:43.291Z,93.20
2018-12-10T07:49:12.395Z,93.30
2018-12-10T07:51:41.119Z,93.40
2018-12-10T07:54:10.355Z,93.40
2018-12-10T07:56:39.113Z,93.30
2018-12-10T07:59:08.133Z,93.40
2018-12-10T08:01:37.407Z,93.30
2018-12-10T08:04:07.077Z,93.30
2018-12-10T08:06:36.238Z,93.30
2018-12-10T08:09:06.326Z,93.40
2018-12-10T08:11:35.831Z,93.20
2018-12-10T08:14:04.935Z,93.20
2018-12-10T08:16:33.991Z,92.90
2018-12-10T08:19:03.032Z,93.10
2018-12-10T08:21:32.365Z,93.00
2018-12-10T08:24:01.903Z,93.20
2018-12-10T08:26:31.217Z,93.00
2018-12-10T08:29:07.509Z,93.10
2018-12-10T08:31:31.660Z,92.90
2018-12-10T08:34:00.348Z,92.80
2018-12-10T08:36:29.570Z,93.00
2018-12-10T08:38:58.258Z,93.20
2018-12-10T08:41:27.027Z,93.20
2018-12-10T08:43:56.188Z,93.20
2018-12-10T08:46:25.066Z,93.10
2018-12-10T08:48:54.307Z,93.00
2018-12-10T08:51:23.586Z,92.80
2018-12-10T08:53:53.191Z,92.90
2018-12-10T08:56:22.484Z,92.70
2018-12-10T08:58:51.359Z,92.80
2018-12-10T09:01:20.499Z,92.90
2018-12-10T09:03:49.720Z,92.80
2018-12-10T09:06:19.016Z,92.90
2018-12-10T09:08:48.204Z,92.80
2018-12-10T09:11:16.858Z,92.80
2018-12-10T09:13:45.502Z,92.80
2018-12-10T09:16:14.131Z,92.80
2018-12-10T09:18:42.823Z,92.80
2018-12-10T09:21:11.492Z,92.90
2018-12-10T09:23:40.691Z,92.70
2018-12-10T09:26:09.339Z,92.70
2018-12-10T09:28:38.715Z,92.70
2018-12-10T09:31:07.835Z,92.60
2018-12-10T09:33:36.863Z,92.70
2018-12-10T09:36:06.831Z,92.60
2018-12-10T09:38:35.892Z,92.60
2018-12-10T09:41:04.963Z,92.60
2018-12-10T09:43:35.330Z,92.50
2018-12-10T09:46:04.395Z,92.40
2018-12-10T09:48:33.426Z,92.60
2018-12-10T09:51:02.585Z,92.70
2018-12-10T09:53:32.154Z,92.80
2018-12-10T09:56:01.358Z,92.80
2018-12-10T09:58:30.698Z,92.90
2018-12-10T10:00:59.343Z,92.90
2018-12-10T10:03:28.031Z,92.90
2018-12-10T10:05:56.652Z,93.00
2018-12-10T10:08:25.247Z,93.00
2018-12-10T10:10:53.874Z,93.10
2018-12-10T10:13:23.249Z,93.00
2018-12-10T10:15:52.384Z,92.90
2018-12-10T10:18:21.317Z,92.80
2018-12-10T10:20:50.851Z,92.50
2018-12-10T10:23:19.988Z,92.70
2018-12-10T10:25:49.066Z,92.50
2018-12-10T10:28:18.186Z,92.40
2018-12-10T10:30:47.230Z,92.50
2018-12-10T10:33:16.197Z,92.40
2018-12-10T10:35:45.497Z,92.20
2018-12-10T10:38:15.268Z,92.30
2018-12-10T10:40:44.721Z,92.10
2018-12-10T10:43:13.758Z,92.00
2018-12-10T10:45:50.301Z,91.90
2018-12-10T10:48:19.110Z,91.80
2018-12-10T10:50:48.004Z,91.90
2018-12-10T10:53:16.797Z,92.00
2018-12-10T10:55:45.863Z,91.90
2018-12-10T10:58:14.929Z,91.70
2018-12-10T11:00:49.627Z,91.50
2018-12-10T11:03:39.471Z,91.50
2018-12-10T11:06:08.723Z,91.40
2018-12-10T11:08:38.197Z,91.40
2018-12-10T11:11:07.449Z,91.40
2018-12-10T11:13:36.866Z,91.50
2018-12-10T11:16:06.083Z,91.50
2018-12-10T11:18:34.970Z,91.40
2018-12-10T11:21:04.280Z,91.50
2018-12-10T11:23:33.564Z,91.70
2018-12-10T11:26:02.667Z,91.70
2018-12-10T11:28:32.177Z,91.90
2018-12-10T11:31:01.191Z,91.90
2018-12-10T11:33:30.535Z,91.90
2018-12-10T11:35:59.623Z,91.90
2018-12-10T11:38:29.330Z,91.90
2018-12-10T11:40:58.370Z,92.00
2018-12-10T11:43:27.734Z,92.00
2018-12-10T11:45:56.943Z,92.10
2018-12-10T11:48:26.323Z,92.30
2018-12-10T11:50:55.766Z,92.10
2018-12-10T11:53:25.107Z,92.10
2018-12-10T11:55:54.484Z,92.10
2018-12-10T11:58:23.750Z,92.30
2018-12-10T12:00:52.998Z,92.30
2018-12-10T12:03:22.537Z,92.40
2018-12-10T12:05:51.614Z,92.40
2018-12-10T12:08:20.770Z,92.40
2018-12-10T12:10:49.872Z,92.60
2018-12-10T12:13:19.168Z,92.60
2018-12-10T12:15:48.017Z,92.70
2018-12-10T12:18:17.124Z,92.70
2018-12-10T12:20:45.778Z,92.80
2018-12-10T12:23:15.138Z,92.90
2018-12-10T12:25:44.314Z,92.90
2018-12-10T12:28:13.540Z,92.90
2018-12-10T12:30:42.814Z,92.80
2018-12-10T12:33:12.111Z,92.70
2018-12-10T12:35:41.251Z,92.50
2018-12-10T12:38:10.930Z,92.50
2018-12-10T12:40:40.251Z,92.50
2018-12-10T12:43:15.859Z,92.30
2018-12-10T12:45:41.609Z,92.00
2018-12-10T12:48:11.035Z,91.80
2018-12-10T12:50:40.515Z,91.90
2018-12-10T12:53:09.807Z,91.80
2018-12-10T12:55:39.219Z,91.80
2018-12-10T12:58:08.550Z,91.70
2018-12-10T13:00:41.881Z,91.70
2018-12-10T13:03:09.068Z,91.60
2018-12-10T13:05:38.577Z,91.70
2018-12-10T13:08:07.701Z,91.60
2018-12-10T13:10:37.153Z,91.60
2018-12-10T13:13:06.463Z,91.50
2018-12-10T13:15:35.754Z,91.40
2018-12-10T13:18:04.948Z,91.40
2018-12-10T13:20:34.090Z,91.40
2018-12-10T13:23:03.077Z,91.50
2018-12-10T13:25:32.447Z,91.70
2018-12-10T13:28:01.869Z,91.80
2018-12-10T13:30:31.135Z,91.80
2018-12-10T13:33:00.469Z,91.90
2018-12-10T13:35:29.994Z,91.90
2018-12-10T13:37:59.390Z,91.90
2018-12-10T13:40:28.557Z,92.00
2018-12-10T13:42:57.643Z,92.10
2018-12-10T13:45:30.988Z,92.10
2018-12-10T13:47:57.692Z,92.20
2018-12-10T13:50:27.321Z,92.10
2018-12-10T13:52:56.987Z,92.20
2018-12-10T13:55:28.905Z,92.30
2018-12-10T13:57:57.725Z,92.30
2018-12-10T14:00:27.067Z,92.40
2018-12-10T14:02:58.311Z,92.20
2018-12-10T14:05:27.872Z,92.30
2018-12-10T14:07:56.733Z,92.30
2018-12-10T14:10:25.641Z,92.40
2018-12-10T14:12:54.741Z,92.40
2018-12-10T14:15:24.287Z,92.20
2018-12-10T14:17:53.427Z,92.20
2018-12-10T14:20:23.035Z,92.20
2018-12-10T14:22:52.223Z,92.20
2018-12-10T14:25:24.136Z,92.20
2018-12-10T14:27:52.924Z,92.20
2018-12-10T14:30:21.585Z,92.20
2018-12-10T14:32:50.269Z,92.00
2018-12-10T14:35:18.949Z,92.00
2018-12-10T14:37:48.411Z,91.90
2018-12-10T14:40:17.734Z,92.00
2018-12-10T14:42:51.692Z,92.10
2018-12-10T14:45:20.644Z,92.20
2018-12-10T14:47:52.067Z,92.10
2018-12-10T14:50:21.159Z,92.40
2018-12-10T14:52:51.015Z,92.20
2018-12-10T14:55:20.332Z,92.30
2018-12-10T14:57:49.369Z,92.20
2018-12-10T15:00:18.557Z,92.30
2018-12-10T15:02:47.595Z,92.10
2018-12-10T15:05:16.926Z,92.20
2018-12-10T15:07:46.375Z,92.10
2018-12-10T15:10:15.537Z,92.10
2018-12-10T15:12:44.210Z,92.20
2018-12-10T15:15:12.874Z,92.00
2018-12-10T15:17:42.075Z,91.90
2018-12-10T15:20:10.774Z,91.90
2018-12-10T15:22:40.211Z,91.90
2018-12-10T15:25:09.301Z,91.80
2018-12-10T15:27:38.402Z,91.90
2018-12-10T15:30:08.084Z,91.90
2018-12-10T15:32:37.513Z,92.00
2018-12-10T15:35:07.134Z,92.00
2018-12-10T15:37:36.346Z,91.90
2018-12-10T15:40:05.631Z,92.00
2018-12-10T15:42:34.939Z,92.00
2018-12-10T15:45:04.263Z,92.00
2018-12-10T15:47:33.750Z,92.00
2018-12-10T15:50:02.981Z,92.10
2018-12-10T15:52:32.280Z,92.20
2018-12-10T15:55:01.094Z,92.30
2018-12-10T15:57:30.157Z,92.40
2018-12-10T15:59:58.870Z,92.50
2018-12-10T16:02:27.989Z,92.60
2018-12-10T16:04:56.637Z,92.60
2018-12-10T16:07:25.599Z,92.50
2018-12-10T16:09:54.868Z,92.90
2018-12-10T16:12:24.166Z,92.70
2018-12-10T16:14:53.714Z,92.80
2018-12-10T16:17:24.128Z,93.00
2018-12-10T16:19:53.135Z,93.10
2018-12-10T16:22:22.313Z,93.00
2018-12-10T16:24:51.435Z,93.10
2018-12-10T16:27:20.955Z,93.20
2018-12-10T16:29:50.292Z,93.10
2018-12-10T16:32:19.549Z,93.20
2018-12-10T16:34:48.985Z,93.30
2018-12-10T16:37:18.190Z,93.40
2018-12-10T16:39:47.679Z,93.50
2018-12-10T16:42:16.289Z,93.70
2018-12-10T16:44:44.950Z,93.60
2018-12-10T16:47:13.578Z,93.90
2018-12-10T16:49:42.200Z,93.80
2018-12-10T16:52:11.443Z,93.80
2018-12-10T16:54:40.741Z,94.00
2018-12-10T16:57:10.239Z,94.00
2018-12-10T16:59:39.559Z,94.00
2018-12-10T17:02:08.779Z,94.10
2018-12-10T17:04:37.947Z,94.00
2018-12-10T17:07:07.163Z,94.10
2018-12-10T17:09:37.719Z,93.90
2018-12-10T17:12:07.454Z,94.10
2018-12-10T17:14:36.815Z,94.20
2018-12-10T17:17:06.191Z,94.10
2018-12-10T17:19:35.338Z,94.10
2018-12-10T17:22:04.446Z,94.20
2018-12-10T17:24:33.082Z,94.20
2018-12-10T17:27:01.720Z,94.20
2018-12-10T17:29:30.371Z,94.20
2018-12-10T17:31:59.027Z,94.20
2018-12-10T17:34:28.296Z,94.00
2018-12-10T17:36:57.352Z,94.00
2018-12-10T17:39:26.500Z,94.10
2018-12-10T17:41:55.790Z,94.10
2018-12-10T17:44:25.098Z,94.00
2018-12-10T17:46:54.143Z,94.00
2018-12-10T17:49:23.347Z,94.00
2018-12-10T17:51:52.561Z,94.10
2018-12-10T17:54:21.629Z,94.20
2018-12-10T17:56:50.804Z,94.20
2018-12-10T17:59:20.286Z,94.40
2018-12-10T18:01:49.523Z,94.30
2018-12-10T18:04:18.832Z,94.50
2018-12-10T18:06:48.068Z,94.40
2018-12-10T18:09:17.347Z,94.50
2018-12-10T18:11:46.433Z,94.50
2018-12-10T18:14:15.799Z,94.50
2018-12-10T18:16:45.026Z,94.60
2018-12-10T18:19:14.153Z,94.80
2018-12-10T18:21:43.290Z,94.70
2018-12-10T18:24:12.177Z,94.80
2018-12-10T18:26:41.437Z,95.30
2018-12-10T18:29:10.344Z,95.20
2018-12-10T18:31:39.364Z,95.10
2018-12-10T18:34:08.728Z,95.10
2018-12-10T18:36:37.994Z,95.30
2018-12-10T18:39:08.218Z,95.30
2018-12-10T18:41:37.435Z,95.30
2018-12-10T18:44:06.724Z,95.20
2018-12-10T18:46:35.996Z,95.20
2018-12-10T18:49:05.881Z,95.40
2018-12-10T18:51:35.045Z,95.40
2018-12-10T18:54:03.705Z,95.40
2018-12-10T18:56:32.777Z,95.30
2018-12-10T18:59:02.173Z,95.20
2018-12-10T19:01:31.239Z,94.90
2018-12-10T19:04:00.575Z,94.50
2018-12-10T19:06:29.889Z,94.40
2018-12-10T19:08:59.483Z,94.40
2018-12-10T19:11:28.607Z,94.40
2018-12-10T19:13:57.908Z,94.60
2018-12-10T19:16:26.990Z,94.30
2018-12-10T19:18:56.084Z,94.30
2018-12-10T19:21:26.046Z,94.40
2018-12-10T19:23:55.256Z,94.60
2018-12-10T19:26:24.597Z,94.60
2018-12-10T19:28:53.907Z,94.60
2018-12-10T19:31:22.567Z,94.60
2018-12-10T19:33:51.681Z,94.50
2018-12-10T19:36:20.398Z,94.40
2018-12-10T19:38:49.040Z,94.20
2018-12-10T19:41:17.660Z,94.10
2018-12-10T19:43:46.831Z,94.20
2018-12-10T19:46:15.451Z,94.40
2018-12-10T19:48:44.352Z,94.40
2018-12-10T19:51:13.516Z,94.50
2018-12-10T19:53:42.600Z,94.70
2018-12-10T19:56:12.302Z,94.40
2018-12-10T19:58:41.375Z,94.40
2018-12-10T20:01:10.906Z,94.50
2018-12-10T20:03:40.616Z,94.50
2018-12-10T20:06:16.520Z,94.50
2018-12-10T20:08:45.624Z,94.50
2018-12-10T20:11:14.540Z,94.40
2018-12-10T20:13:43.837Z,94.50
2018-12-10T20:16:13.135Z,94.50
2018-12-10T20:18:42.440Z,94.70
2018-12-10T20:21:11.089Z,94.90
2018-12-10T20:23:39.716Z,94.90
2018-12-10T20:26:08.314Z,94.90
2018-12-10T20:28:36.990Z,95.00
2018-12-10T20:31:05.638Z,95.10
2018-12-10T20:33:35.155Z,95.10
2018-12-10T20:36:04.503Z,95.00
2018-12-10T20:38:33.777Z,95.10
2018-12-10T20:41:03.063Z,95.00
2018-12-10T20:43:33.113Z,94.90
2018-12-10T20:46:02.637Z,94.70
2018-12-10T20:48:31.801Z,94.50
2018-12-10T20:51:00.872Z,94.40
2018-12-10T20:53:30.148Z,94.30
2018-12-10T20:55:59.088Z,94.10
2018-12-10T20:58:28.382Z,94.20
2018-12-10T21:00:57.455Z,94.10
2018-12-10T21:03:26.768Z,94.00
2018-12-10T21:06:01.614Z,94.00
2018-12-10T21:08:30.810Z,93.30
2018-12-10T21:11:00.067Z,93.20
2018-12-10T21:13:29.658Z,92.60
2018-12-10T21:15:58.852Z,92.60
2018-12-10T21:18:28.076Z,92.20
2018-12-10T21:20:57.758Z,91.90
2018-12-10T21:23:27.385Z,91.50
2018-12-10T21:25:56.385Z,91.40
2018-12-10T21:28:25.377Z,91.10
2018-12-10T21:30:54.650Z,91.00
2018-12-10T21:33:23.959Z,91.00
2018-12-10T21:35:53.284Z,90.90
2018-12-10T21:38:22.344Z,90.40
2018-12-10T21:40:51.843Z,89.50
2018-12-10T21:43:21.169Z,89.70
2018-12-10T21:45:50.255Z,90.10
2018-12-10T21:48:19.343Z,89.00
2018-12-10T21:50:48.723Z,87.00
2018-12-10T21:53:18.176Z,86.60
2018-12-10T21:55:47.253Z,86.50
2018-12-10T21:58:15.934Z,86.50
2018-12-10T22:00:45.138Z,86.90
2018-12-10T22:03:14.470Z,87.40
2018-12-10T22:05:43.730Z,88.40
2018-12-10T22:08:12.707Z,88.90
2018-12-10T22:10:42.021Z,88.50
2018-12-10T22:13:11.360Z,88.70
2018-12-10T22:15:40.395Z,88.50
2018-12-10T22:18:09.764Z,88.60
2018-12-10T22:20:38.993Z,89.50
2018-12-10T22:23:08.092Z,90.00
2018-12-10T22:25:37.795Z,90.00
2018-12-10T22:28:07.131Z,90.00
2018-12-10T22:30:36.585Z,90.10
2018-12-10T22:33:05.245Z,89.80
2018-12-10T22:35:33.909Z,88.90
2018-12-10T22:38:02.630Z,88.90
2018-12-10T22:40:31.351Z,89.10
2018-12-10T22:43:00.035Z,88.00
2018-12-10T22:45:29.067Z,86.90
2018-12-10T22:47:58.365Z,85.70
2018-12-10T22:50:27.460Z,85.60
2018-12-10T22:52:56.609Z,85.70
2018-12-10T22:55:25.904Z,85.70
2018-12-10T22:57:55.215Z,85.60
2018-12-10T23:00:26.491Z,85.80
2018-12-10T23:02:55.421Z,85.50
2018-12-10T23:05:25.010Z,85.90
2018-12-10T23:07:53.925Z,85.20
2018-12-10T23:10:23.477Z,85.70
2018-12-10T23:12:52.528Z,85.70
2018-12-10T23:15:21.426Z,85.50
2018-12-10T23:17:50.635Z,86.20
2018-12-10T23:20:19.993Z,85.80
2018-12-10T23:22:49.492Z,85.80
2018-12-10T23:25:18.961Z,85.60
2018-12-10T23:27:48.255Z,85.40
2018-12-10T23:30:17.300Z,85.80
2018-12-10T23:32:46.409Z,85.60
2018-12-10T23:35:15.538Z,85.50
2018-12-10T23:37:44.634Z,84.10
2018-12-10T23:40:13.720Z,83.80
2018-12-10T23:42:44.988Z,83.10
2018-12-10T23:45:13.920Z,83.10
2018-12-10T23:47:42.831Z,81.90
2018-12-10T23:50:11.946Z,80.90
2018-12-10T23:52:40.927Z,79.90
2018-12-10T23:55:09.968Z,78.50
2018-12-10T23:57:39.159Z,78.80
